Time;durP1;ratioP1;P1;durP2;ratioP2;P2;SDS_P1;SDS_P2;PMS_P1;PMS_P2;Temp;Humidity;BMP_temperature;BMP_pressure;BME280_temperature;BME280_humidity;BME280_pressure;Samples;Min_cycle;Max_cycle;Signal;HPM_P1;HPM_P2
2021/10/05 00:02:21;;;;;;;19.50;16.20;;;15.50;99.90;;;;;;9872382;30;20326;-83
2021/10/05 00:07:24;;;;;;;17.00;15.63;;;15.50;99.90;;;;;;9859832;30;20278;-82
2021/10/05 00:12:26;;;;;;;17.23;15.77;;;15.40;99.90;;;;;;9877053;30;20230;-83
2021/10/05 00:17:29;;;;;;;18.40;16.70;;;15.40;99.90;;;;;;9855201;30;20679;-82
2021/10/05 00:22:32;;;;;;;17.67;16.17;;;15.40;99.90;;;;;;9854918;30;20305;-84
2021/10/05 00:27:34;;;;;;;18.60;17.10;;;15.40;99.90;;;;;;9841266;30;20215;-84
2021/10/05 00:32:37;;;;;;;19.53;17.57;;;15.30;99.90;;;;;;9871587;30;20227;-82
2021/10/05 00:37:40;;;;;;;22.03;20.07;;;15.30;99.90;;;;;;9862992;30;20204;-82
2021/10/05 00:42:43;;;;;;;25.20;22.90;;;15.30;99.90;;;;;;9864085;30;20258;-84
2021/10/05 00:47:46;;;;;;;23.23;21.17;;;15.30;99.90;;;;;;9865256;30;20233;-83
2021/10/05 00:52:51;;;;;;;24.43;22.23;;;15.20;99.90;;;;;;9863740;30;20657;-83
2021/10/05 00:57:54;;;;;;;25.87;23.43;;;15.10;99.90;;;;;;9863458;30;20215;-82
2021/10/05 01:02:57;;;;;;;26.77;24.07;;;15.10;99.90;;;;;;9862252;30;20639;-82
2021/10/05 01:08:01;;;;;;;24.97;22.57;;;15.10;99.90;;;;;;9860725;30;20302;-82
2021/10/05 01:13:03;;;;;;;28.00;25.20;;;15.10;99.90;;;;;;9861258;30;20692;-83
2021/10/05 01:18:05;;;;;;;26.77;24.20;;;15.10;99.90;;;;;;9860736;30;20214;-82
2021/10/05 01:23:08;;;;;;;27.07;24.47;;;15.10;99.90;;;;;;9875740;30;20241;-82
2021/10/05 01:28:12;;;;;;;27.63;24.80;;;15.10;99.90;;;;;;9877415;30;20279;-83
2021/10/05 01:33:15;;;;;;;29.00;26.00;;;15.10;99.90;;;;;;9860584;30;20776;-82
2021/10/05 01:38:18;;;;;;;28.23;25.53;;;15.10;99.90;;;;;;9861070;30;20257;-82
2021/10/05 01:43:20;;;;;;;27.80;25.10;;;15.00;99.90;;;;;;9876276;30;20235;-82
2021/10/05 01:48:22;;;;;;;27.70;24.90;;;15.00;99.90;;;;;;9880118;30;20692;-82
2021/10/05 01:53:26;;;;;;;28.97;25.87;;;15.00;99.90;;;;;;9845985;30;20238;-82
2021/10/05 01:58:28;;;;;;;28.87;25.77;;;15.00;99.90;;;;;;9859731;30;20211;-82
2021/10/05 02:03:30;;;;;;;28.63;25.70;;;15.00;99.90;;;;;;9859635;30;20239;-83
2021/10/05 02:08:34;;;;;;;28.07;25.07;;;15.00;99.90;;;;;;9878187;30;20263;-83
2021/10/05 02:13:36;;;;;;;28.97;25.87;;;15.00;99.90;;;;;;9844237;30;20245;-83
2021/10/05 02:18:38;;;;;;;30.17;27.07;;;15.10;99.90;;;;;;9859369;30;20273;-83
2021/10/05 02:29:06;;;;;;;30.40;24.60;;;15.10;99.90;;;;;;9858543;30;20226;-83
2021/10/05 02:34:08;;;;;;;30.17;26.87;;;15.00;99.90;;;;;;9873729;30;20701;-83
2021/10/05 02:39:12;;;;;;;28.53;25.57;;;15.00;99.90;;;;;;9875424;30;20195;-83
2021/10/05 02:44:14;;;;;;;29.63;26.47;;;14.90;99.90;;;;;;9873536;30;20240;-82
2021/10/05 02:49:17;;;;;;;31.60;28.23;;;14.90;99.90;;;;;;9873993;30;20211;-83
2021/10/05 02:54:21;;;;;;;30.27;27.00;;;14.80;99.90;;;;;;9861141;30;20231;-83
2021/10/05 02:59:23;;;;;;;33.57;28.70;;;14.90;99.90;;;;;;9859652;30;20218;-83
2021/10/05 03:04:25;;;;;;;31.60;28.17;;;14.80;99.90;;;;;;9876958;30;20220;-82
2021/10/05 03:09:28;;;;;;;28.90;25.77;;;14.80;99.90;;;;;;9874719;30;20203;-83
2021/10/05 03:14:30;;;;;;;30.63;27.47;;;14.80;99.90;;;;;;9858219;30;20713;-82
2021/10/05 03:19:32;;;;;;;32.00;27.00;;;14.70;99.90;;;;;;9865813;30;20263;-84
2021/10/05 03:24:36;;;;;;;29.37;26.27;;;14.80;99.90;;;;;;9869857;30;20582;-84
2021/10/05 03:29:39;;;;;;;31.60;26.57;;;14.80;99.90;;;;;;9889919;30;20207;-82
2021/10/05 03:34:41;;;;;;;34.90;28.23;;;14.80;99.90;;;;;;9871920;30;20234;-84
2021/10/05 03:39:44;;;;;;;26.67;23.13;;;14.70;99.90;;;;;;9867226;30;20215;-83
2021/10/05 03:44:47;;;;;;;25.83;23.13;;;14.70;99.90;;;;;;9863773;30;20231;-81
2021/10/05 03:49:49;;;;;;;29.93;26.80;;;14.70;99.90;;;;;;9844841;30;20290;-84
2021/10/05 03:54:52;;;;;;;26.30;23.57;;;14.70;99.90;;;;;;9872123;30;20227;-83
2021/10/05 03:59:55;;;;;;;30.90;24.37;;;14.70;99.90;;;;;;9856822;30;20663;-84
2021/10/05 04:04:57;;;;;;;27.63;24.70;;;14.70;99.90;;;;;;9875170;30;20299;-84
2021/10/05 04:10:00;;;;;;;25.67;22.30;;;14.70;99.90;;;;;;9878146;30;20203;-83
2021/10/05 04:15:02;;;;;;;25.63;22.90;;;14.70;99.90;;;;;;9887296;30;20242;-82
2021/10/05 04:20:06;;;;;;;25.70;23.00;;;14.70;99.90;;;;;;9867891;30;20670;-83
2021/10/05 04:25:10;;;;;;;26.37;20.93;;;14.60;99.90;;;;;;9862115;30;20231;-82
2021/10/05 04:30:14;;;;;;;24.97;22.47;;;14.60;99.90;;;;;;9879010;30;20213;-83
2021/10/05 04:35:16;;;;;;;23.90;21.43;;;14.60;99.90;;;;;;9868384;30;20294;-82
2021/10/05 04:40:19;;;;;;;24.27;20.63;;;14.60;99.90;;;;;;9882646;30;20230;-82
2021/10/05 04:45:27;;;;;;;23.33;20.83;;;14.60;99.90;;;;;;9878212;30;20229;-82
2021/10/05 04:50:29;;;;;;;20.40;18.40;;;14.60;99.90;;;;;;9878250;30;20223;-82
2021/10/05 04:55:33;;;;;;;21.43;19.33;;;14.60;99.90;;;;;;9867050;30;20232;-83
2021/10/05 05:00:35;;;;;;;20.63;18.43;;;14.60;99.90;;;;;;9880010;30;20230;-83
2021/10/05 05:05:37;;;;;;;19.23;17.23;;;14.50;99.90;;;;;;9849260;30;20239;-83
2021/10/05 05:10:41;;;;;;;21.20;19.00;;;14.50;99.90;;;;;;9865178;30;20638;-81
2021/10/05 05:15:43;;;;;;;21.60;18.90;;;14.50;99.90;;;;;;9861004;30;20326;-82
2021/10/05 05:20:45;;;;;;;21.67;19.53;;;14.50;99.90;;;;;;9889623;30;20314;-82
2021/10/05 05:25:49;;;;;;;27.00;19.77;;;14.60;99.90;;;;;;9877306;30;20554;-82
2021/10/05 05:30:51;;;;;;;23.30;18.33;;;14.60;99.90;;;;;;9884797;30;20210;-80
2021/10/05 05:35:53;;;;;;;20.90;18.70;;;14.50;99.90;;;;;;9883558;30;20228;-81
2021/10/05 05:40:56;;;;;;;19.60;17.50;;;14.60;99.90;;;;;;9882900;30;20223;-82
2021/10/05 05:45:58;;;;;;;20.60;17.67;;;14.60;99.90;;;;;;9878899;30;20705;-83
2021/10/05 05:51:00;;;;;;;19.80;17.70;;;14.60;99.90;;;;;;9879632;30;20680;-82
2021/10/05 05:56:04;;;;;;;16.90;15.10;;;14.70;99.90;;;;;;9886983;30;20262;-84
2021/10/05 06:01:06;;;;;;;21.00;18.47;;;14.70;99.90;;;;;;9863348;30;20234;-82
2021/10/05 06:06:09;;;;;;;20.63;16.97;;;14.70;99.90;;;;;;9878852;30;20310;-81
2021/10/05 06:11:12;;;;;;;19.87;15.87;;;14.70;99.90;;;;;;9862135;30;20235;-81
2021/10/05 06:16:15;;;;;;;20.00;17.27;;;14.80;99.90;;;;;;9850314;30;20249;-82
2021/10/05 06:21:17;;;;;;;18.57;16.50;;;14.80;99.90;;;;;;9865604;30;20792;-83
2021/10/05 06:26:21;;;;;;;18.47;14.97;;;14.80;99.90;;;;;;9880820;30;20311;-84
2021/10/05 06:31:23;;;;;;;17.70;14.67;;;14.90;99.90;;;;;;9876745;30;20207;-83
2021/10/05 06:36:25;;;;;;;16.67;14.50;;;14.90;99.90;;;;;;9870462;30;20215;-81
2021/10/05 06:41:28;;;;;;;16.73;13.70;;;14.90;99.90;;;;;;9894513;30;20219;-82
2021/10/05 06:46:30;;;;;;;15.13;13.57;;;14.90;99.90;;;;;;9866621;30;20207;-83
2021/10/05 06:51:32;;;;;;;15.43;12.33;;;14.90;99.90;;;;;;9887796;30;20204;-82
2021/10/05 06:56:36;;;;;;;13.40;11.47;;;14.90;99.90;;;;;;9883250;30;20215;-82
2021/10/05 07:01:38;;;;;;;14.73;12.70;;;14.90;99.90;;;;;;9883254;30;20235;-83
2021/10/05 07:06:41;;;;;;;13.13;11.17;;;15.00;99.90;;;;;;9868285;30;20207;-83
2021/10/05 07:11:46;;;;;;;11.73;10.53;;;15.10;99.90;;;;;;9879551;30;20224;-82
2021/10/05 07:16:48;;;;;;;12.60;11.23;;;15.10;99.90;;;;;;9883152;30;20279;-81
2021/10/05 07:21:51;;;;;;;12.00;10.80;;;15.30;99.90;;;;;;9859658;30;20249;-81
2021/10/05 07:26:54;;;;;;;9.53;8.63;;;15.40;99.90;;;;;;9873967;30;20319;-81
2021/10/05 07:31:56;;;;;;;11.40;9.57;;;15.50;99.90;;;;;;9874788;30;20231;-81
2021/10/05 07:36:58;;;;;;;10.23;9.23;;;15.60;99.90;;;;;;9860430;30;20573;-81
2021/10/05 07:42:02;;;;;;;11.70;10.27;;;15.70;99.90;;;;;;9877017;30;20297;-81
2021/10/05 07:47:04;;;;;;;11.53;10.07;;;15.80;99.90;;;;;;9873159;30;20633;-82
2021/10/05 07:52:07;;;;;;;12.70;11.50;;;15.80;99.90;;;;;;9877648;30;20255;-82
2021/10/05 07:57:10;;;;;;;12.43;11.23;;;15.80;99.90;;;;;;9876319;30;20234;-80
2021/10/05 08:02:12;;;;;;;13.17;11.83;;;15.80;99.90;;;;;;9879082;30;20315;-81
2021/10/05 08:07:15;;;;;;;12.63;10.87;;;15.80;99.90;;;;;;9863631;30;20208;-81
2021/10/05 08:12:18;;;;;;;13.40;12.10;;;15.80;99.90;;;;;;9860958;30;20234;-83
2021/10/05 08:17:20;;;;;;;13.03;11.23;;;15.80;99.90;;;;;;9878349;30;20218;-81
2021/10/05 08:22:23;;;;;;;10.20;9.20;;;15.80;99.90;;;;;;9877200;30;20775;-83
2021/10/05 08:27:26;;;;;;;13.70;12.30;;;15.80;99.90;;;;;;9866670;30;20576;-82
2021/10/05 08:32:28;;;;;;;15.60;13.80;;;15.70;99.90;;;;;;9876418;30;20243;-81
2021/10/05 08:37:30;;;;;;;15.27;13.67;;;15.80;99.90;;;;;;9860634;30;20214;-80
2021/10/05 08:42:35;;;;;;;14.23;11.90;;;15.90;99.90;;;;;;9859815;30;20250;-81
2021/10/05 08:47:37;;;;;;;11.67;10.63;;;16.10;99.90;;;;;;9860184;30;20212;-81
2021/10/05 08:52:39;;;;;;;9.80;9.00;;;16.30;99.90;;;;;;9875153;30;20223;-80
2021/10/05 08:57:43;;;;;;;8.70;8.00;;;16.50;99.90;;;;;;9884011;30;20408;-81
2021/10/05 09:02:48;;;;;;;9.37;8.50;;;16.50;99.90;;;;;;9886280;30;20401;-79
2021/10/05 09:07:52;;;;;;;6.20;5.70;;;16.50;99.90;;;;;;9886453;30;20275;-80
2021/10/05 09:12:56;;;;;;;6.70;6.10;;;16.40;99.90;;;;;;9869138;30;20220;-81
2021/10/05 09:17:59;;;;;;;6.30;5.80;;;16.30;99.90;;;;;;9880356;30;20333;-80
2021/10/05 09:23:07;;;;;;;7.17;6.63;;;16.40;99.90;;;;;;9866497;30;20244;-80
2021/10/05 09:28:19;;;;;;;6.40;5.90;;;16.40;99.90;;;;;;9842332;30;20248;-79
2021/10/05 09:33:21;;;;;;;6.80;6.30;;;16.40;99.90;;;;;;9842915;30;20216;-81
2021/10/05 09:38:25;;;;;;;6.90;6.30;;;16.50;99.90;;;;;;9841497;30;20585;-80
2021/10/05 09:43:29;;;;;;;7.17;6.57;;;16.50;99.90;;;;;;9842190;30;20232;-80
2021/10/05 09:48:31;;;;;;;7.13;6.53;;;16.60;99.90;;;;;;9841127;30;20210;-81
2021/10/05 09:53:33;;;;;;;7.47;6.87;;;16.60;99.90;;;;;;9860871;30;20287;-81
2021/10/05 09:58:39;;;;;;;7.60;7.00;;;16.60;99.90;;;;;;9864187;30;20662;-82
2021/10/05 10:03:42;;;;;;;7.00;6.50;;;16.60;99.90;;;;;;9878361;30;20257;-80
2021/10/05 10:08:46;;;;;;;5.90;5.40;;;16.70;99.90;;;;;;9878973;30;20202;-81
2021/10/05 10:13:50;;;;;;;5.90;5.40;;;16.80;99.90;;;;;;9862984;30;20227;-80
2021/10/05 10:18:54;;;;;;;6.20;5.70;;;16.90;99.90;;;;;;9878345;30;20199;-79
2021/10/05 10:24:13;;;;;;;5.87;5.43;;;16.90;99.90;;;;;;9875840;30;20318;-82
2021/10/05 10:29:27;;;;;;;5.20;4.80;;;17.10;99.90;;;;;;9877036;30;20207;-82
2021/10/05 10:34:31;;;;;;;5.73;5.23;;;17.20;99.90;;;;;;9904112;24;20303;-82
2021/10/05 10:39:38;;;;;;;5.63;5.13;;;17.30;99.90;;;;;;9896563;30;20219;-83
2021/10/05 10:44:42;;;;;;;4.33;4.03;;;17.40;99.90;;;;;;9900778;29;20321;-82
2021/10/05 10:49:55;;;;;;;4.70;4.40;;;17.50;99.90;;;;;;9898696;30;20202;-82
2021/10/05 10:54:58;;;;;;;4.80;4.50;;;17.50;99.90;;;;;;9911372;29;20727;-82
2021/10/05 11:00:18;;;;;;;5.40;5.10;;;17.60;99.90;;;;;;9896157;30;20294;-82
2021/10/05 11:29:29;;;;;;;2.60;2.50;;;17.70;99.90;;;;;;9905318;29;20209;-83
2021/10/05 11:34:31;;;;;;;2.67;2.50;;;17.80;99.90;;;;;;9890505;29;20222;-83
2021/10/05 11:39:35;;;;;;;3.40;2.70;;;17.80;99.90;;;;;;9891222;30;20298;-83
2021/10/05 11:44:41;;;;;;;2.63;2.53;;;17.90;99.90;;;;;;9875582;29;20246;-84
2021/10/05 11:49:46;;;;;;;1.93;1.83;;;18.00;99.90;;;;;;9893901;30;20205;-84
2021/10/05 11:54:50;;;;;;;2.33;2.23;;;17.90;99.90;;;;;;9894060;29;20239;-84
2021/10/05 12:00:00;;;;;;;2.20;2.10;;;17.90;99.90;;;;;;9891647;30;20210;-83
2021/10/05 12:05:02;;;;;;;1.70;1.60;;;17.90;99.90;;;;;;9894905;29;20769;-84
2021/10/05 12:10:06;;;;;;;2.50;2.30;;;17.80;99.90;;;;;;9909054;30;20257;-83
2021/10/05 12:15:15;;;;;;;2.03;1.93;;;17.80;99.90;;;;;;9906400;29;20222;-83
2021/10/05 12:20:17;;;;;;;1.63;1.53;;;17.90;99.90;;;;;;9890431;30;20210;-83
2021/10/05 12:25:22;;;;;;;1.90;1.80;;;17.90;99.90;;;;;;9891050;29;20621;-83
2021/10/05 12:30:33;;;;;;;2.47;2.10;;;17.90;99.90;;;;;;9894702;29;20249;-83
2021/10/05 12:35:37;;;;;;;1.90;1.60;;;18.00;99.90;;;;;;9914174;29;20218;-83
2021/10/05 12:40:41;;;;;;;1.57;1.53;;;18.00;99.90;;;;;;9893097;30;20884;-84
2021/10/05 12:45:53;;;;;;;1.70;1.60;;;18.00;99.90;;;;;;9878643;29;20314;-84
2021/10/05 12:50:55;;;;;;;2.20;1.60;;;18.10;99.90;;;;;;9845919;30;20691;-84
2021/10/05 12:55:57;;;;;;;1.70;1.53;;;18.10;99.90;;;;;;9899058;30;20342;-84
2021/10/05 13:01:01;;;;;;;1.73;1.63;;;18.20;99.90;;;;;;9898342;30;20214;-84
2021/10/05 13:06:04;;;;;;;4.17;1.53;;;18.30;99.90;;;;;;9898679;30;20238;-84
2021/10/05 13:11:06;;;;;;;1.60;1.50;;;18.30;99.90;;;;;;9884220;30;20215;-85
2021/10/05 13:16:10;;;;;;;1.30;1.30;;;18.30;99.90;;;;;;9898377;30;20276;-83
2021/10/05 13:21:12;;;;;;;1.77;1.67;;;18.40;99.90;;;;;;9900417;30;20203;-85
2021/10/05 13:26:15;;;;;;;1.20;1.20;;;18.30;99.90;;;;;;9880563;30;20261;-83
2021/10/05 13:31:18;;;;;;;3.10;1.70;;;18.30;99.90;;;;;;9889990;30;20215;-84
2021/10/05 13:36:20;;;;;;;1.63;1.53;;;18.10;99.90;;;;;;9916711;29;20250;-83
2021/10/05 13:41:23;;;;;;;1.27;1.17;;;18.20;99.90;;;;;;9901433;29;20238;-84
2021/10/05 13:46:27;;;;;;;1.40;1.30;;;18.20;99.90;;;;;;9915962;29;20218;-85
2021/10/05 13:51:29;;;;;;;1.87;1.70;;;18.10;99.90;;;;;;9899056;30;20230;-85
2021/10/05 13:56:31;;;;;;;1.80;1.70;;;18.00;99.90;;;;;;9886795;30;20251;-85
2021/10/05 14:01:35;;;;;;;2.17;1.80;;;17.90;99.90;;;;;;9888181;30;20680;-84
2021/10/05 14:06:37;;;;;;;1.20;1.20;;;17.80;99.90;;;;;;9900953;30;20250;-84
2021/10/05 14:11:39;;;;;;;1.90;1.80;;;17.70;99.90;;;;;;9901015;30;20650;-84
2021/10/05 14:16:43;;;;;;;3.07;2.77;;;17.70;99.90;;;;;;9921072;29;20230;-84
2021/10/05 14:21:46;;;;;;;1.97;1.87;;;17.70;99.90;;;;;;9903035;30;20697;-84
2021/10/05 14:26:48;;;;;;;1.53;1.53;;;17.70;99.90;;;;;;9856281;30;20239;-84
2021/10/05 14:31:51;;;;;;;1.50;1.50;;;17.70;99.90;;;;;;9879605;30;20211;-85
2021/10/05 14:36:53;;;;;;;1.77;1.67;;;17.70;99.90;;;;;;9868329;30;20231;-85
2021/10/05 14:41:55;;;;;;;3.30;1.60;;;17.70;99.90;;;;;;9893131;30;20211;-84
2021/10/05 14:46:59;;;;;;;1.70;1.60;;;17.80;99.90;;;;;;9858122;30;20239;-84
2021/10/05 14:52:01;;;;;;;1.60;1.50;;;17.80;99.90;;;;;;9875070;30;20215;-83
2021/10/05 14:57:03;;;;;;;1.63;1.53;;;17.70;99.90;;;;;;9843762;30;20732;-83
2021/10/05 15:02:07;;;;;;;2.10;1.93;;;17.70;99.90;;;;;;9858187;30;20246;-83
2021/10/05 15:07:09;;;;;;;1.70;1.70;;;17.70;99.90;;;;;;9874873;30;20317;-83
2021/10/05 15:12:12;;;;;;;1.83;1.73;;;17.60;99.90;;;;;;9860016;30;20231;-84
2021/10/05 15:17:15;;;;;;;1.63;1.53;;;17.60;99.90;;;;;;9864468;30;20246;-83
2021/10/05 15:22:17;;;;;;;1.73;1.53;;;17.60;99.90;;;;;;9865274;30;20262;-83
2021/10/05 15:27:20;;;;;;;1.30;1.30;;;17.50;99.90;;;;;;9901840;30;20309;-83
2021/10/05 15:32:24;;;;;;;1.73;1.63;;;17.50;99.90;;;;;;9892343;30;20673;-84
2021/10/05 15:37:26;;;;;;;1.80;1.70;;;17.50;99.90;;;;;;9876898;30;20292;-83
2021/10/05 15:42:28;;;;;;;1.70;1.70;;;17.40;99.90;;;;;;9896653;30;20269;-83
2021/10/05 15:47:32;;;;;;;1.23;1.23;;;17.40;99.90;;;;;;9893667;30;20580;-83
2021/10/05 15:52:46;;;;;;;1.80;1.70;;;17.30;99.90;;;;;;9893251;30;20203;-83
2021/10/05 15:57:50;;;;;;;2.53;1.60;;;17.30;99.90;;;;;;9847399;30;20211;-84
2021/10/05 16:02:54;;;;;;;4.60;1.93;;;17.30;99.90;;;;;;9870448;30;20232;-83
2021/10/05 16:07:57;;;;;;;2.00;1.90;;;17.20;99.90;;;;;;9872670;30;20677;-84
2021/10/05 16:12:59;;;;;;;1.57;1.47;;;17.20;99.90;;;;;;9872810;30;20839;-83
2021/10/05 16:18:02;;;;;;;1.40;1.40;;;17.10;99.90;;;;;;9856780;30;20218;-84
2021/10/05 16:23:05;;;;;;;1.83;1.73;;;17.10;99.90;;;;;;9870849;30;20227;-85
2021/10/05 16:28:07;;;;;;;1.77;1.50;;;17.00;99.90;;;;;;9890411;30;20305;-83
2021/10/05 16:38:13;;;;;;;2.03;1.93;;;16.80;99.90;;;;;;9914540;29;20317;-80
2021/10/05 16:43:15;;;;;;;2.27;1.70;;;16.60;99.90;;;;;;9895895;29;20286;-81
2021/10/05 16:48:17;;;;;;;2.37;2.17;;;16.50;99.90;;;;;;9886976;30;20206;-80
2021/10/05 16:53:21;;;;;;;2.40;2.30;;;16.40;99.90;;;;;;9911893;30;20203;-81
2021/10/05 16:58:23;;;;;;;7.17;6.50;;;16.30;99.90;;;;;;9900852;30;20234;-81
2021/10/05 17:03:25;;;;;;;9.00;6.87;;;16.20;99.90;;;;;;9921876;29;20222;-81
2021/10/05 17:08:29;;;;;;;6.33;5.83;;;16.20;99.90;;;;;;9869701;29;20211;-81
2021/10/05 17:13:31;;;;;;;2.90;2.57;;;16.10;99.90;;;;;;9905632;30;20662;-80
2021/10/05 17:18:34;;;;;;;2.60;2.40;;;16.00;99.90;;;;;;9895991;29;20295;-80
2021/10/05 17:23:37;;;;;;;3.27;2.00;;;16.00;99.90;;;;;;9895457;30;20295;-80
2021/10/05 17:28:39;;;;;;;1.40;1.30;;;16.00;99.90;;;;;;9867018;30;20703;-80
2021/10/05 17:33:42;;;;;;;1.43;1.40;;;16.20;99.90;;;;;;9896083;30;20238;-80
2021/10/05 17:38:45;;;;;;;1.50;1.40;;;16.30;99.90;;;;;;9898000;30;20214;-80
2021/10/05 17:43:47;;;;;;;3.13;2.93;;;16.40;99.90;;;;;;9901471;30;20242;-82
2021/10/05 17:48:49;;;;;;;2.40;2.20;;;16.50;99.90;;;;;;9911312;30;20214;-81
2021/10/05 17:53:53;;;;;;;2.07;1.90;;;16.60;99.90;;;;;;9904768;30;20234;-82
2021/10/05 17:58:55;;;;;;;1.60;1.50;;;16.50;99.90;;;;;;9901611;30;20206;-80
2021/10/05 18:03:58;;;;;;;1.67;1.57;;;16.50;99.90;;;;;;9918103;30;20597;-80
2021/10/05 18:09:02;;;;;;;2.17;1.93;;;16.50;99.90;;;;;;9919276;30;20206;-82
2021/10/05 18:14:05;;;;;;;2.83;1.47;;;16.50;99.90;;;;;;9920589;30;20234;-82
2021/10/05 18:19:07;;;;;;;1.80;1.70;;;16.50;99.90;;;;;;9904855;30;20564;-80
2021/10/05 18:24:12;;;;;;;2.00;1.83;;;16.40;99.90;;;;;;9900340;30;20274;-81
2021/10/05 18:29:14;;;;;;;1.70;1.60;;;16.40;99.90;;;;;;9916843;29;20241;-81
2021/10/05 18:34:17;;;;;;;2.00;1.80;;;16.30;99.90;;;;;;9902077;29;20241;-81
2021/10/05 18:39:21;;;;;;;1.80;1.70;;;16.20;99.90;;;;;;9922915;30;20702;-81
2021/10/05 18:44:23;;;;;;;1.10;1.10;;;16.00;99.90;;;;;;9916119;30;20333;-80
2021/10/05 18:49:26;;;;;;;2.80;2.07;;;15.90;99.90;;;;;;9893268;30;20299;-80
2021/10/05 18:54:30;;;;;;;2.03;1.83;;;15.90;99.90;;;;;;9867446;30;20261;-81
2021/10/05 18:59:33;;;;;;;1.93;1.83;;;15.90;99.90;;;;;;9909559;30;20207;-80
2021/10/05 19:04:36;;;;;;;1.57;1.47;;;15.80;99.90;;;;;;9912895;30;20235;-81
2021/10/05 19:09:39;;;;;;;1.47;1.37;;;15.80;99.90;;;;;;9898821;29;20250;-81
2021/10/05 19:14:41;;;;;;;2.17;1.93;;;15.70;99.90;;;;;;9897342;30;20269;-80
2021/10/05 19:19:44;;;;;;;1.90;1.80;;;15.70;99.90;;;;;;9913958;30;20187;-80
2021/10/05 19:24:47;;;;;;;1.70;1.60;;;15.70;99.90;;;;;;9898555;30;20288;-81
2021/10/05 19:29:50;;;;;;;1.90;1.80;;;15.70;99.90;;;;;;9898310;29;20264;-81
2021/10/05 19:34:52;;;;;;;1.97;1.80;;;15.80;99.90;;;;;;9930638;29;20242;-81
2021/10/05 19:39:55;;;;;;;1.30;1.30;;;15.80;99.90;;;;;;9908194;30;20211;-81
2021/10/05 19:44:57;;;;;;;2.10;2.00;;;15.90;99.90;;;;;;9894761;30;20362;-81
2021/10/05 19:49:59;;;;;;;1.60;1.50;;;15.90;99.90;;;;;;9906399;30;20678;-81
2021/10/05 19:55:05;;;;;;;2.10;1.63;;;15.90;99.90;;;;;;9911296;30;20231;-81
2021/10/05 20:00:09;;;;;;;1.67;1.57;;;15.90;99.90;;;;;;9875218;30;20518;-83
2021/10/05 20:05:13;;;;;;;2.17;2.07;;;15.90;99.90;;;;;;9883963;30;20246;-82
2021/10/05 20:10:19;;;;;;;2.10;2.00;;;15.90;99.90;;;;;;9890867;30;20242;-82
2021/10/05 20:15:21;;;;;;;2.53;2.00;;;15.90;99.90;;;;;;9881912;30;20242;-83
2021/10/05 20:20:25;;;;;;;1.97;1.87;;;15.90;99.90;;;;;;9866233;30;20231;-82
2021/10/05 20:25:32;;;;;;;2.70;2.20;;;16.00;99.90;;;;;;9858978;30;20234;-83
2021/10/05 20:31:14;;;;;;;2.40;2.20;;;16.00;99.90;;;;;;9892302;30;20213;-82
2021/10/05 20:36:17;;;;;;;2.27;2.07;;;16.00;99.90;;;;;;9891277;30;20233;-83
2021/10/05 20:42:16;;;;;;;2.30;1.60;;;15.90;99.90;;;;;;9875991;30;20923;-82
2021/10/05 20:47:21;;;;;;;2.17;2.07;;;15.90;99.90;;;;;;9744251;30;20241;-82
2021/10/05 20:52:25;;;;;;;1.43;1.43;;;15.90;99.90;;;;;;9872461;30;20202;-84
2021/10/05 20:57:29;;;;;;;1.90;1.80;;;15.90;99.90;;;;;;9880866;30;20250;-83
2021/10/05 21:02:42;;;;;;;3.40;2.00;;;15.90;99.90;;;;;;9885056;30;20221;-82
2021/10/05 21:07:49;;;;;;;2.90;2.20;;;15.90;99.90;;;;;;9915941;30;20322;-82
2021/10/05 21:12:54;;;;;;;1.87;1.70;;;15.80;99.90;;;;;;9915688;30;20264;-83
2021/10/05 21:18:07;;;;;;;2.13;1.93;;;15.80;99.90;;;;;;9898232;30;20600;-82
2021/10/05 21:35:15;;;;;;;3.00;2.03;;;15.60;99.90;;;;;;9898764;30;20250;-82
2021/10/05 21:40:42;;;;;;;2.90;2.00;;;15.50;99.90;;;;;;9900222;30;20613;-82
2021/10/05 21:45:47;;;;;;;2.33;2.03;;;15.40;99.90;;;;;;9900733;30;20234;-82
2021/10/05 21:57:19;;;;;;;2.77;2.57;;;15.30;99.90;;;;;;9892429;24;20250;-83
2021/10/05 22:02:33;;;;;;;2.17;2.07;;;15.30;99.90;;;;;;9810692;30;20588;-82
2021/10/05 22:25:03;;;;;;;2.27;1.73;;;15.00;99.90;;;;;;9874229;30;20288;-83
2021/10/05 22:30:15;;;;;;;2.00;1.90;;;15.00;99.90;;;;;;9837794;30;20212;-82
2021/10/05 22:35:50;;;;;;;2.50;1.67;;;14.90;99.90;;;;;;9860341;24;20238;-84
2021/10/05 22:40:52;;;;;;;2.03;1.60;;;14.80;99.90;;;;;;9895621;30;20237;-84
2021/10/05 22:45:54;;;;;;;2.57;1.80;;;14.70;99.90;;;;;;9911140;29;20292;-85
2021/10/05 22:50:58;;;;;;;2.00;1.80;;;14.70;99.90;;;;;;9880381;30;20249;-82
2021/10/05 22:56:00;;;;;;;2.20;1.70;;;14.60;99.90;;;;;;9879802;29;20222;-82
2021/10/05 23:01:03;;;;;;;1.67;1.57;;;14.70;99.90;;;;;;9879324;30;20234;-83
2021/10/05 23:06:06;;;;;;;2.00;1.80;;;14.60;99.90;;;;;;9880788;29;20300;-82
2021/10/05 23:11:08;;;;;;;3.47;1.63;;;14.60;99.90;;;;;;9895862;30;20238;-83
2021/10/05 23:16:10;;;;;;;2.00;1.60;;;14.50;99.90;;;;;;9879940;29;20353;-83
2021/10/05 23:21:30;;;;;;;2.10;1.63;;;14.40;99.90;;;;;;9880525;30;20202;-83
2021/10/05 23:26:32;;;;;;;2.83;2.10;;;14.40;99.90;;;;;;9894199;30;20242;-83
2021/10/05 23:31:34;;;;;;;6.60;1.97;;;14.40;99.90;;;;;;9880183;30;20676;-83
2021/10/05 23:36:38;;;;;;;1.87;1.60;;;14.30;99.90;;;;;;9879098;30;20616;-82
2021/10/05 23:41:40;;;;;;;2.80;1.80;;;14.30;99.90;;;;;;9894303;30;20286;-83
2021/10/05 23:46:42;;;;;;;1.90;1.80;;;14.20;99.90;;;;;;9893601;30;20235;-82
2021/10/05 23:51:46;;;;;;;4.57;1.70;;;14.20;99.90;;;;;;9878178;30;20214;-83
2021/10/05 23:56:48;;;;;;;2.23;1.73;;;14.10;99.90;;;;;;9879246;30;20265;-83
